< < Back
Terminal Aerodrome Forecast


Current Version              Previous Versions:   1  2  3  4  5  6  7  8  9  

Terminal Aerodrome Forecast

932
FTUS44 KOHX 032329
TAFBNA
TAF
KBNA 032329Z 0400/0424 VRB03KT P6SM SCT050
      TEMPO 0409/0413 3SM BR=

Latest METAR

643
SAUS70 KWBC 031900 RRL
MTRBNA
METAR KBNA 031853Z VRB05KT 10SM SCT055 33/16 A2999 RMK AO2 SLP146
T03330161


USA.gov is the U.S. government's official web portal to all federal, state and local government web resources and services.